createdAt,value
2022-08-24T00:02:07.602Z,82.50
2022-08-24T00:04:38.908Z,82.50
2022-08-24T00:07:13.858Z,82.50
2022-08-24T00:09:53.135Z,82.50
2022-08-24T00:12:19.988Z,82.60
2022-08-24T00:14:46.599Z,82.50
2022-08-24T00:17:13.221Z,82.60
2022-08-24T00:19:40.064Z,82.60
2022-08-24T00:22:06.692Z,82.70
2022-08-24T00:24:33.896Z,82.70
2022-08-24T00:29:27.595Z,82.10
2022-08-24T00:31:54.712Z,82.60
2022-08-24T00:34:21.673Z,82.60
2022-08-24T00:36:48.295Z,82.70
2022-08-24T00:39:15.207Z,82.90
2022-08-24T00:41:48.397Z,82.70
2022-08-24T00:44:16.813Z,82.70
2022-08-24T00:46:51.895Z,82.20
2022-08-24T00:49:48.556Z,82.70
2022-08-24T00:52:20.096Z,82.70
2022-08-24T00:54:52.427Z,82.70
2022-08-24T00:57:22.496Z,82.80
2022-08-24T00:59:54.401Z,82.70
2022-08-24T01:02:25.910Z,82.80
2022-08-24T01:04:56.230Z,82.70
2022-08-24T01:07:25.547Z,82.70
2022-08-24T01:09:55.795Z,82.60
2022-08-24T01:12:24.412Z,82.60
2022-08-24T01:14:51.160Z,82.60
2022-08-24T01:17:38.825Z,82.60
2022-08-24T01:20:07.579Z,82.70
2022-08-24T01:22:53.432Z,82.60
2022-08-24T01:25:22.132Z,82.60
2022-08-24T01:27:51.659Z,82.60
2022-08-24T01:30:30.388Z,82.80
2022-08-24T01:33:07.061Z,82.60
2022-08-24T01:35:36.471Z,82.60
2022-08-24T01:38:08.275Z,82.50
2022-08-24T01:40:47.263Z,82.60
2022-08-24T01:43:15.008Z,82.60
2022-08-24T01:45:42.853Z,82.50
2022-08-24T01:48:09.528Z,82.60
2022-08-24T01:50:36.194Z,82.60
2022-08-24T01:56:50.445Z,82.70
2022-08-24T01:59:17.631Z,82.60
2022-08-24T02:01:49.684Z,82.70
2022-08-24T02:04:17.802Z,82.70
2022-08-24T02:06:45.669Z,82.70
2022-08-24T02:09:13.071Z,82.80
2022-08-24T02:11:41.554Z,82.70
2022-08-24T02:14:08.177Z,82.70
2022-08-24T02:16:34.759Z,82.70
2022-08-24T02:19:01.336Z,82.70
2022-08-24T02:21:28.088Z,82.80
2022-08-24T02:23:54.803Z,82.80
2022-08-24T02:26:21.583Z,82.80
2022-08-24T02:28:48.375Z,82.70
2022-08-24T02:31:15.312Z,82.80
2022-08-24T02:33:42.223Z,82.80
2022-08-24T02:36:21.878Z,82.80
2022-08-24T02:38:54.318Z,82.70
2022-08-24T02:41:21.899Z,82.90
2022-08-24T02:43:48.465Z,82.90
2022-08-24T02:46:23.941Z,82.90
2022-08-24T02:48:58.081Z,82.80
2022-08-24T02:51:44.100Z,82.90
2022-08-24T02:54:13.664Z,82.80
2022-08-24T02:56:40.264Z,82.80
2022-08-24T02:59:06.938Z,82.70
2022-08-24T03:01:33.652Z,82.80
2022-08-24T03:04:00.406Z,82.60
2022-08-24T03:06:27.226Z,82.70
2022-08-24T03:08:56.542Z,83.30
2022-08-24T03:11:27.575Z,82.60
2022-08-24T03:13:55.317Z,82.10
2022-08-24T03:16:22.025Z,82.20
2022-08-24T03:18:48.640Z,82.70
2022-08-24T03:21:16.155Z,82.70
2022-08-24T03:23:43.043Z,82.70
2022-08-24T03:26:20.353Z,82.80
2022-08-24T03:28:47.059Z,82.80
2022-08-24T03:31:16.877Z,82.80
2022-08-24T03:33:43.697Z,82.20
2022-08-24T03:36:14.055Z,82.20
2022-08-24T03:38:41.385Z,82.70
2022-08-24T03:41:08.067Z,82.70
2022-08-24T03:43:46.657Z,82.70
2022-08-24T03:46:16.704Z,82.70
2022-08-24T03:48:44.331Z,82.70
2022-08-24T03:51:12.839Z,82.70
2022-08-24T03:53:42.936Z,82.80
2022-08-24T03:56:11.035Z,82.80
2022-08-24T03:58:38.951Z,82.80
2022-08-24T04:01:06.291Z,82.80
2022-08-24T04:03:44.044Z,82.70
2022-08-24T04:06:12.113Z,82.10
2022-08-24T04:08:40.086Z,82.60
2022-08-24T04:11:10.673Z,82.70
2022-08-24T04:13:37.375Z,83.70
2022-08-24T04:16:09.573Z,84.60
2022-08-24T04:18:36.530Z,85.70
2022-08-24T04:21:04.585Z,86.70
2022-08-24T04:23:41.233Z,87.80
2022-08-24T04:26:14.940Z,88.10
2022-08-24T04:28:41.579Z,88.60
2022-08-24T04:31:08.363Z,88.60
2022-08-24T04:33:35.285Z,87.80
2022-08-24T04:36:02.753Z,88.30
2022-08-24T04:38:30.057Z,88.00
2022-08-24T04:40:56.653Z,88.60
2022-08-24T04:43:27.041Z,89.20
2022-08-24T04:45:53.689Z,89.30
2022-08-24T04:48:20.377Z,89.80
2022-08-24T04:50:47.089Z,90.20
2022-08-24T04:53:14.236Z,90.20
2022-08-24T04:55:46.532Z,90.20
2022-08-24T04:58:14.593Z,90.20
2022-08-24T05:00:41.558Z,90.20
2022-08-24T05:03:08.555Z,89.80
2022-08-24T05:05:35.285Z,88.20
2022-08-24T05:08:02.604Z,87.10
2022-08-24T05:10:33.711Z,86.40
2022-08-24T05:13:00.615Z,86.00
2022-08-24T05:15:27.317Z,85.80
2022-08-24T05:17:53.885Z,85.70
2022-08-24T05:20:20.546Z,85.50
2022-08-24T05:22:47.156Z,85.40
2022-08-24T05:25:13.841Z,85.30
2022-08-24T05:27:40.480Z,85.20
2022-08-24T05:30:07.603Z,85.20
2022-08-24T05:32:34.164Z,85.20
2022-08-24T05:35:01.450Z,84.50
2022-08-24T05:37:28.104Z,85.10
2022-08-24T05:39:54.780Z,85.10
2022-08-24T05:42:21.463Z,85.10
2022-08-24T05:44:48.108Z,85.10
2022-08-24T05:47:14.660Z,85.20
2022-08-24T05:49:41.850Z,85.10
2022-08-24T05:52:08.773Z,85.20
2022-08-24T05:54:35.353Z,85.20
2022-08-24T05:57:04.745Z,85.10
2022-08-24T05:59:31.932Z,85.10
2022-08-24T06:01:58.648Z,85.90
2022-08-24T06:04:26.378Z,86.50
2022-08-24T06:06:53.005Z,86.80
2022-08-24T06:09:19.659Z,87.10
2022-08-24T06:11:47.435Z,87.40
2022-08-24T06:14:16.609Z,87.60
2022-08-24T06:16:46.745Z,87.80
2022-08-24T06:19:30.836Z,88.30
2022-08-24T06:21:57.456Z,88.50
2022-08-24T06:24:44.849Z,88.40
2022-08-24T06:27:22.538Z,88.30
2022-08-24T06:29:58.139Z,88.60
2022-08-24T06:32:25.589Z,88.00
2022-08-24T06:34:56.821Z,88.40
2022-08-24T06:37:26.520Z,88.40
2022-08-24T06:39:57.282Z,89.00
2022-08-24T06:42:29.132Z,88.40
2022-08-24T06:44:55.761Z,88.10
2022-08-24T06:47:22.500Z,88.10
2022-08-24T06:49:49.320Z,88.20
2022-08-24T06:52:16.212Z,87.80
2022-08-24T06:54:42.988Z,88.30
2022-08-24T06:57:09.548Z,87.70
2022-08-24T06:59:36.296Z,87.60
2022-08-24T07:02:02.984Z,87.30
2022-08-24T07:04:29.694Z,87.20
2022-08-24T07:06:56.391Z,86.40
2022-08-24T07:09:27.261Z,86.00
2022-08-24T07:11:53.897Z,86.00
2022-08-24T07:14:21.571Z,87.10
2022-08-24T07:16:48.373Z,87.00
2022-08-24T07:19:14.995Z,86.00
2022-08-24T07:21:42.452Z,86.00
2022-08-24T07:24:10.566Z,85.70
2022-08-24T07:26:38.750Z,85.20
2022-08-24T07:29:30.366Z,84.70
2022-08-24T07:31:57.199Z,85.20
2022-08-24T07:34:23.895Z,85.00
2022-08-24T07:36:52.200Z,85.10
2022-08-24T07:39:18.828Z,84.30
2022-08-24T07:44:32.288Z,84.70
2022-08-24T07:47:10.522Z,84.10
2022-08-24T07:49:47.716Z,84.00
2022-08-24T07:52:15.140Z,83.90
2022-08-24T07:54:41.988Z,83.70
2022-08-24T07:57:08.915Z,83.50
2022-08-24T07:59:36.581Z,83.40
2022-08-24T08:02:05.096Z,83.30
2022-08-24T08:04:31.814Z,83.20
2022-08-24T08:07:00.692Z,83.30
2022-08-24T08:09:28.241Z,83.30
2022-08-24T08:11:55.043Z,83.50
2022-08-24T08:14:21.675Z,83.70
2022-08-24T08:16:48.238Z,83.80
2022-08-24T08:19:14.878Z,83.90
2022-08-24T08:22:05.455Z,83.80
2022-08-24T08:24:32.185Z,83.90
2022-08-24T08:26:59.180Z,83.80
2022-08-24T08:29:26.180Z,83.90
2022-08-24T08:31:53.413Z,83.80
2022-08-24T08:34:20.445Z,83.60
2022-08-24T08:36:47.362Z,83.50
2022-08-24T08:39:15.820Z,83.50
2022-08-24T08:42:14.953Z,83.50
2022-08-24T08:44:50.434Z,83.50
2022-08-24T08:47:26.305Z,83.50
2022-08-24T08:50:21.883Z,83.50
2022-08-24T08:53:07.337Z,83.60
2022-08-24T08:55:41.332Z,83.50
2022-08-24T08:58:51.069Z,83.50
2022-08-24T09:01:46.461Z,83.50
2022-08-24T09:04:35.196Z,83.30
2022-08-24T09:07:17.160Z,83.40
2022-08-24T09:10:02.322Z,83.40
2022-08-24T09:12:47.454Z,83.60
2022-08-24T09:16:10.873Z,83.50
2022-08-24T09:18:56.218Z,83.50
2022-08-24T09:21:46.997Z,83.40
2022-08-24T09:24:40.041Z,83.40
2022-08-24T09:27:52.114Z,83.40
2022-08-24T09:30:27.730Z,83.40
2022-08-24T09:32:58.958Z,83.40
2022-08-24T09:36:02.788Z,83.30
2022-08-24T09:39:03.773Z,83.10
2022-08-24T09:41:57.736Z,83.60
2022-08-24T09:44:32.908Z,83.50
2022-08-24T09:47:17.815Z,83.80
2022-08-24T09:49:47.318Z,83.80
2022-08-24T09:52:51.163Z,83.80
2022-08-24T09:55:39.210Z,83.80
2022-08-24T09:58:20.790Z,83.90
2022-08-24T10:01:16.163Z,84.00
2022-08-24T10:04:00.762Z,84.00
2022-08-24T10:06:48.587Z,83.40
2022-08-24T10:10:07.484Z,84.00
2022-08-24T10:12:47.749Z,84.10
2022-08-24T10:15:30.218Z,84.30
2022-08-24T10:18:23.692Z,84.20
2022-08-24T10:21:20.513Z,84.20
2022-08-24T10:23:49.824Z,84.30
2022-08-24T10:26:23.470Z,84.30
2022-08-24T10:29:18.268Z,85.00
2022-08-24T10:31:48.533Z,84.10
2022-08-24T10:34:54.386Z,84.00
2022-08-24T10:37:20.904Z,83.80
2022-08-24T10:40:18.334Z,83.80
2022-08-24T10:43:26.174Z,83.70
2022-08-24T10:46:20.782Z,83.80
2022-08-24T10:49:24.843Z,83.70
2022-08-24T10:52:42.441Z,83.70
2022-08-24T10:55:35.511Z,83.80
2022-08-24T10:58:23.759Z,83.70
2022-08-24T11:00:50.701Z,82.60
2022-08-24T11:03:21.389Z,83.10
2022-08-24T11:05:56.647Z,82.90
2022-08-24T11:08:33.303Z,82.80
2022-08-24T11:11:10.597Z,82.80
2022-08-24T11:13:50.301Z,82.80
2022-08-24T11:16:25.800Z,82.60
2022-08-24T11:18:55.789Z,82.70
2022-08-24T11:21:37.092Z,82.20
2022-08-24T11:24:13.558Z,82.90
2022-08-24T11:27:09.076Z,82.80
2022-08-24T11:29:53.370Z,82.80
2022-08-24T11:32:43.315Z,82.90
2022-08-24T11:35:21.110Z,82.90
2022-08-24T11:37:49.677Z,82.90
2022-08-24T11:40:18.623Z,82.80
2022-08-24T11:43:06.181Z,82.70
2022-08-24T11:46:18.081Z,82.60
2022-08-24T11:49:20.663Z,82.50
2022-08-24T11:52:00.483Z,82.40
2022-08-24T11:54:52.477Z,82.40
2022-08-24T11:57:35.097Z,82.40
2022-08-24T12:00:21.221Z,82.80
2022-08-24T12:03:04.977Z,83.10
2022-08-24T12:05:44.716Z,83.30
2022-08-24T12:08:14.320Z,83.40
2022-08-24T12:10:53.049Z,83.50
2022-08-24T12:13:52.997Z,83.60
2022-08-24T12:16:40.778Z,83.50
2022-08-24T12:19:19.762Z,83.40
2022-08-24T12:21:50.725Z,83.50
2022-08-24T12:24:31.769Z,83.50
2022-08-24T12:27:25.927Z,83.70
2022-08-24T12:30:16.376Z,83.70
2022-08-24T12:32:52.265Z,83.70
2022-08-24T12:35:37.867Z,83.70
2022-08-24T12:38:13.309Z,83.70
2022-08-24T12:40:56.345Z,83.70
2022-08-24T12:43:39.687Z,83.60
2022-08-24T12:46:06.817Z,83.60
2022-08-24T12:48:45.006Z,83.60
2022-08-24T12:51:51.508Z,83.70
2022-08-24T12:54:42.461Z,83.70
2022-08-24T12:57:51.829Z,83.20
2022-08-24T13:00:36.798Z,82.60
2022-08-24T13:03:06.768Z,82.50
2022-08-24T13:05:46.477Z,82.90
2022-08-24T13:08:20.816Z,83.10
2022-08-24T13:11:16.853Z,83.20
2022-08-24T13:13:54.276Z,83.20
2022-08-24T13:16:57.943Z,83.50
2022-08-24T13:19:30.903Z,83.40
2022-08-24T13:22:09.829Z,83.50
2022-08-24T13:24:38.392Z,83.50
2022-08-24T13:27:13.830Z,83.50
2022-08-24T13:29:44.679Z,83.40
2022-08-24T13:32:35.179Z,84.20
2022-08-24T13:35:40.001Z,83.80
2022-08-24T13:38:25.606Z,83.70
2022-08-24T13:41:00.881Z,83.80
2022-08-24T13:43:37.481Z,83.50
2022-08-24T13:46:22.918Z,83.50
2022-08-24T13:48:58.534Z,83.60
2022-08-24T13:51:45.361Z,83.70
2022-08-24T13:54:34.086Z,83.90
2022-08-24T13:57:06.423Z,83.60
2022-08-24T14:00:12.659Z,83.60
2022-08-24T14:03:04.141Z,83.50
2022-08-24T14:05:40.006Z,83.40
2022-08-24T14:08:34.985Z,83.40
2022-08-24T14:11:29.488Z,83.50
2022-08-24T14:14:05.185Z,83.50
2022-08-24T14:17:25.845Z,83.80
2022-08-24T14:20:28.640Z,83.40
2022-08-24T14:23:09.922Z,83.30
2022-08-24T14:25:37.911Z,83.30
2022-08-24T14:28:04.677Z,83.40
2022-08-24T14:30:31.343Z,83.40
2022-08-24T14:33:00.795Z,83.00
2022-08-24T14:35:36.232Z,83.50
2022-08-24T14:38:14.843Z,83.50
2022-08-24T14:40:51.333Z,83.50
2022-08-24T14:43:38.995Z,83.40
2022-08-24T14:46:10.604Z,83.40
2022-08-24T14:48:46.966Z,83.50
2022-08-24T14:51:32.096Z,83.50
2022-08-24T14:54:35.945Z,83.50
2022-08-24T14:57:48.661Z,83.60
2022-08-24T15:00:17.988Z,83.50
2022-08-24T15:03:19.828Z,83.50
2022-08-24T15:06:25.701Z,83.50
2022-08-24T15:08:50.128Z,83.60
2022-08-24T15:11:29.365Z,83.50
2022-08-24T15:14:03.539Z,83.60
2022-08-24T15:16:30.095Z,83.70
2022-08-24T15:19:02.622Z,83.70
2022-08-24T15:21:55.008Z,83.70
2022-08-24T15:24:41.275Z,83.70
2022-08-24T15:27:39.446Z,83.70
2022-08-24T15:30:07.731Z,83.70
2022-08-24T15:32:48.892Z,83.70
2022-08-24T15:35:32.346Z,83.70
2022-08-24T15:38:35.949Z,83.80
2022-08-24T15:41:14.760Z,83.70
2022-08-24T15:43:56.603Z,83.80
2022-08-24T15:46:28.940Z,83.70
2022-08-24T15:49:04.275Z,83.70
2022-08-24T15:51:43.016Z,83.50
2022-08-24T15:54:25.330Z,83.70
2022-08-24T15:56:55.849Z,83.60
2022-08-24T15:59:29.094Z,83.70
2022-08-24T16:02:25.771Z,83.60
2022-08-24T16:05:00.660Z,83.70
2022-08-24T16:07:34.593Z,83.70
2022-08-24T16:10:09.077Z,83.70
2022-08-24T16:12:36.228Z,83.70
2022-08-24T16:15:17.086Z,84.30
2022-08-24T16:17:51.443Z,83.60
2022-08-24T16:20:24.087Z,83.70
2022-08-24T16:23:00.560Z,83.70
2022-08-24T16:25:31.807Z,83.70
2022-08-24T16:28:21.903Z,83.60
2022-08-24T16:30:56.378Z,83.60
2022-08-24T16:33:39.228Z,83.70
2022-08-24T16:36:13.707Z,83.60
2022-08-24T16:38:46.858Z,83.60
2022-08-24T16:41:17.401Z,83.50
2022-08-24T16:43:45.718Z,83.70
2022-08-24T16:46:13.432Z,83.70
2022-08-24T16:48:40.405Z,83.60
2022-08-24T16:51:07.292Z,83.50
2022-08-24T16:53:33.867Z,83.60
2022-08-24T16:56:00.643Z,83.50
2022-08-24T16:58:32.887Z,83.50
2022-08-24T17:01:00.005Z,83.70
2022-08-24T17:03:27.144Z,83.60
2022-08-24T17:05:54.785Z,83.70
2022-08-24T17:08:21.352Z,83.70
2022-08-24T17:10:47.948Z,83.70
2022-08-24T17:13:27.866Z,83.80
2022-08-24T17:16:01.273Z,83.70
2022-08-24T17:18:28.417Z,83.60
2022-08-24T17:20:57.420Z,83.50
2022-08-24T17:23:24.074Z,83.40
2022-08-24T17:25:51.105Z,83.40
2022-08-24T17:28:20.654Z,83.40
2022-08-24T17:30:51.348Z,83.40
2022-08-24T17:33:18.521Z,83.50
2022-08-24T17:35:45.306Z,83.50
2022-08-24T17:38:12.005Z,83.30
2022-08-24T17:40:38.633Z,83.30
2022-08-24T17:43:05.421Z,83.40
2022-08-24T17:45:32.240Z,83.40
2022-08-24T17:47:58.877Z,83.40
2022-08-24T17:50:26.614Z,83.40
2022-08-24T17:52:58.831Z,83.40
2022-08-24T17:55:27.164Z,83.40
2022-08-24T17:57:53.958Z,83.50
2022-08-24T18:00:20.662Z,83.40
2022-08-24T18:02:47.212Z,83.40
2022-08-24T18:05:14.811Z,83.40
2022-08-24T18:07:55.619Z,83.40
2022-08-24T18:10:26.022Z,83.40
2022-08-24T18:12:53.166Z,83.30
2022-08-24T18:15:20.203Z,83.30
2022-08-24T18:17:49.240Z,83.30
2022-08-24T18:20:20.912Z,83.30
2022-08-24T18:22:47.921Z,83.40
2022-08-24T18:25:20.900Z,83.40
2022-08-24T18:27:48.069Z,83.40
2022-08-24T18:30:33.022Z,83.40
2022-08-24T18:33:01.717Z,83.50
2022-08-24T18:35:30.549Z,83.50
2022-08-24T18:37:57.247Z,83.30
2022-08-24T18:40:26.657Z,83.50
2022-08-24T18:42:59.584Z,83.40
2022-08-24T18:45:31.168Z,83.40
2022-08-24T18:47:58.147Z,83.40
2022-08-24T18:50:24.773Z,83.40
2022-08-24T18:52:51.413Z,83.40
2022-08-24T18:55:18.182Z,83.50
2022-08-24T18:57:45.258Z,83.50
2022-08-24T19:00:12.887Z,83.60
2022-08-24T19:02:40.568Z,83.60
2022-08-24T19:05:12.701Z,83.80
2022-08-24T19:07:45.195Z,83.50
2022-08-24T19:10:15.344Z,83.60
2022-08-24T19:12:46.878Z,83.60
2022-08-24T19:15:35.688Z,83.50
2022-08-24T19:18:01.610Z,82.70
2022-08-24T19:20:28.397Z,82.20
2022-08-24T19:23:04.948Z,82.00
2022-08-24T19:25:32.238Z,81.60
2022-08-24T19:27:58.862Z,81.20
2022-08-24T19:30:27.907Z,80.80
2022-08-24T19:32:56.383Z,80.70
2022-08-24T19:35:23.099Z,80.30
2022-08-24T19:37:50.238Z,80.60
2022-08-24T19:40:18.137Z,80.20
2022-08-24T19:42:49.597Z,80.10
2022-08-24T19:45:40.307Z,80.40
2022-08-24T19:48:06.944Z,79.80
2022-08-24T19:50:35.978Z,79.80
2022-08-24T19:53:04.263Z,79.80
2022-08-24T19:55:31.289Z,80.00
2022-08-24T19:58:09.179Z,80.20
2022-08-24T20:00:41.440Z,80.10
2022-08-24T20:03:15.050Z,80.20
2022-08-24T20:05:41.836Z,79.80
2022-08-24T20:08:10.601Z,78.30
2022-08-24T20:10:38.043Z,79.10
2022-08-24T20:13:04.899Z,79.40
2022-08-24T20:15:32.851Z,78.30
2022-08-24T20:17:59.875Z,78.30
2022-08-24T20:20:27.831Z,78.20
2022-08-24T20:22:54.962Z,77.90
2022-08-24T20:25:21.691Z,77.30
2022-08-24T20:27:52.416Z,77.20
2022-08-24T20:30:24.881Z,77.30
2022-08-24T20:32:51.698Z,77.40
2022-08-24T20:35:18.461Z,77.70
2022-08-24T20:37:45.648Z,78.00
2022-08-24T20:40:16.364Z,77.80
2022-08-24T20:42:43.259Z,77.80
2022-08-24T20:45:11.258Z,78.90
2022-08-24T20:47:51.130Z,79.10
2022-08-24T20:50:21.000Z,79.00
2022-08-24T20:52:50.949Z,79.20
2022-08-24T20:55:18.456Z,79.00
2022-08-24T20:57:51.648Z,79.00
2022-08-24T21:00:21.183Z,78.80
2022-08-24T21:02:48.203Z,78.60
2022-08-24T21:05:14.870Z,78.70
2022-08-24T21:07:47.680Z,78.70
2022-08-24T21:10:14.270Z,78.70
2022-08-24T21:12:40.839Z,78.90
2022-08-24T21:15:13.163Z,78.10
2022-08-24T21:17:41.000Z,78.70
2022-08-24T21:20:08.730Z,78.80
2022-08-24T21:22:38.386Z,79.20
2022-08-24T21:25:07.175Z,78.30
2022-08-24T21:27:38.295Z,78.30
2022-08-24T21:30:06.827Z,78.30
2022-08-24T21:32:52.210Z,78.20
2022-08-24T21:35:18.936Z,78.10
2022-08-24T21:37:46.073Z,78.30
2022-08-24T21:40:13.054Z,78.20
2022-08-24T21:42:39.844Z,78.20
2022-08-24T21:45:07.917Z,77.90
2022-08-24T21:47:34.607Z,77.90
2022-08-24T21:50:01.178Z,78.00
2022-08-24T21:52:27.780Z,77.80
2022-08-24T21:54:54.980Z,77.90
2022-08-24T21:57:21.952Z,77.70
2022-08-24T21:59:48.839Z,77.60
2022-08-24T22:02:16.785Z,77.50
2022-08-24T22:04:45.109Z,77.50
2022-08-24T22:07:12.265Z,77.60
2022-08-24T22:09:40.208Z,77.30
2022-08-24T22:12:07.700Z,77.20
2022-08-24T22:14:34.947Z,77.10
2022-08-24T22:17:02.348Z,77.10
2022-08-24T22:19:28.948Z,77.10
2022-08-24T22:21:55.732Z,77.00
2022-08-24T22:24:22.305Z,76.90
2022-08-24T22:26:49.154Z,76.70
2022-08-24T22:29:16.014Z,76.80
2022-08-24T22:31:43.784Z,76.90
2022-08-24T22:34:19.599Z,76.70
2022-08-24T22:36:48.607Z,76.60
2022-08-24T22:39:15.673Z,76.50
2022-08-24T22:41:42.377Z,76.50
2022-08-24T22:44:21.472Z,76.10
2022-08-24T22:46:49.397Z,76.20
2022-08-24T22:49:16.681Z,75.70
2022-08-24T22:51:43.484Z,75.60
2022-08-24T22:54:10.421Z,75.40
2022-08-24T22:56:43.656Z,75.50
2022-08-24T22:59:17.581Z,75.50
2022-08-24T23:01:45.728Z,75.40
2022-08-24T23:04:16.869Z,75.00
2022-08-24T23:06:43.761Z,75.20
2022-08-24T23:09:11.402Z,75.20
2022-08-24T23:11:38.555Z,75.30
2022-08-24T23:14:06.893Z,75.20
2022-08-24T23:16:35.871Z,75.20
2022-08-24T23:19:21.583Z,75.10
2022-08-24T23:21:48.702Z,75.10
2022-08-24T23:24:15.381Z,75.10
2022-08-24T23:26:43.228Z,75.00
2022-08-24T23:29:12.602Z,75.00
2022-08-24T23:31:40.197Z,75.10
2022-08-24T23:34:07.933Z,75.10
2022-08-24T23:36:35.512Z,75.20
2022-08-24T23:39:03.768Z,75.20
2022-08-24T23:41:33.149Z,74.90
2022-08-24T23:44:01.910Z,75.20
2022-08-24T23:46:28.741Z,75.20
2022-08-24T23:49:02.829Z,75.10
2022-08-24T23:51:30.318Z,75.00
2022-08-24T23:53:57.086Z,75.10
2022-08-24T23:56:28.604Z,75.10
2022-08-24T23:59:13.899Z,75.10
